Time;durP1;ratioP1;P1;durP2;ratioP2;P2;SDS_P1;SDS_P2;PMS_P1;PMS_P2;Temp;Humidity;BMP_temperature;BMP_pressure;BME280_temperature;BME280_humidity;BME280_pressure;Samples;Min_cycle;Max_cycle;Signal;HPM_P1;HPM_P2
2022/04/08 00:00:27;;;;;;;22.70;6.22;;;;;;;6.84;98.03;97625.94;1681875;84;21125;-67
2022/04/08 00:02:54;;;;;;;18.42;5.00;;;;;;;6.81;98.12;97625.24;1687777;84;21646;-66
2022/04/08 00:05:21;;;;;;;20.70;4.78;;;;;;;6.79;98.19;97615.23;1666162;85;21162;-67
2022/04/08 00:07:48;;;;;;;27.77;5.35;;;;;;;6.77;98.43;97613.41;1651478;85;21098;-66
2022/04/08 00:10:18;;;;;;;18.95;5.10;;;;;;;6.74;98.42;97613.52;1677674;85;21431;-67
2022/04/08 00:12:45;;;;;;;16.93;5.25;;;;;;;6.71;98.85;97606.58;1658364;85;21416;-67
2022/04/08 00:15:12;;;;;;;18.07;4.35;;;;;;;6.68;99.43;97608.05;1685980;84;20907;-67
2022/04/08 00:17:41;;;;;;;16.70;3.83;;;;;;;6.64;99.89;97605.77;1684490;84;20979;-68
2022/04/08 00:20:10;;;;;;;17.10;4.83;;;;;;;6.59;100.00;97599.96;1683101;84;20983;-68
2022/04/08 00:22:41;;;;;;;17.30;3.72;;;;;;;6.56;100.00;97602.56;1652233;85;21801;-68
2022/04/08 00:25:13;;;;;;;16.15;5.17;;;;;;;6.52;100.00;97594.27;1654284;85;21183;-68
2022/04/08 00:27:43;;;;;;;21.37;4.12;;;;;;;6.46;100.00;97590.15;1640568;86;21020;-67
2022/04/08 00:30:10;;;;;;;18.32;4.58;;;;;;;6.42;100.00;97586.50;1642472;86;21531;-68
2022/04/08 00:32:37;;;;;;;19.55;4.45;;;;;;;6.38;100.00;97582.86;1630928;86;21552;-68
2022/04/08 00:35:06;;;;;;;9.85;3.47;;;;;;;6.35;100.00;97583.55;1701685;83;21141;-67
2022/04/08 00:37:33;;;;;;;14.38;4.20;;;;;;;6.33;100.00;97579.00;1709707;83;21199;-67
2022/04/08 00:40:00;;;;;;;20.17;4.08;;;;;;;6.32;100.00;97577.98;1701785;83;21001;-67
2022/04/08 00:42:27;;;;;;;19.80;4.45;;;;;;;6.30;100.00;97561.96;1707294;83;21086;-67
2022/04/08 00:44:54;;;;;;;16.25;4.28;;;;;;;6.28;100.00;97567.75;1698035;83;21041;-67
2022/04/08 00:47:23;;;;;;;15.53;4.67;;;;;;;6.25;100.00;97564.33;1708503;83;21421;-67
2022/04/08 00:49:51;;;;;;;18.15;5.03;;;;;;;6.25;100.00;97567.62;1696782;82;21577;-67
2022/04/08 00:52:18;;;;;;;19.85;5.08;;;;;;;6.24;100.00;97569.55;1658646;84;20914;-66
2022/04/08 00:54:47;;;;;;;22.02;4.70;;;;;;;6.23;100.00;97564.44;1698158;82;20953;-69
2022/04/08 00:57:15;;;;;;;19.73;4.92;;;;;;;6.21;100.00;97563.97;1699411;83;21122;-69
2022/04/08 00:59:43;;;;;;;16.97;4.45;;;;;;;6.19;100.00;97564.88;1699841;83;21319;-69
2022/04/08 01:02:10;;;;;;;16.85;4.72;;;;;;;6.18;100.00;97557.83;1685507;82;21140;-67
2022/04/08 01:04:37;;;;;;;19.12;5.78;;;;;;;6.18;100.00;97564.64;1703585;83;21013;-65
2022/04/08 01:07:06;;;;;;;26.02;4.72;;;;;;;6.17;100.00;97565.20;1695141;83;20977;-66
2022/04/08 01:09:35;;;;;;;20.68;5.45;;;;;;;6.17;100.00;97557.59;1701877;82;20955;-66
2022/04/08 01:12:03;;;;;;;17.75;4.22;;;;;;;6.17;100.00;97557.59;1699112;83;21123;-66
2022/04/08 01:14:30;;;;;;;19.57;4.75;;;;;;;6.17;100.00;97549.42;1699513;82;21192;-67
2022/04/08 01:16:57;;;;;;;16.20;5.03;;;;;;;6.16;100.00;97535.57;1699581;83;20977;-67
2022/04/08 01:19:24;;;;;;;14.93;4.28;;;;;;;6.16;100.00;97536.94;1702609;83;21044;-66
2022/04/08 01:21:52;;;;;;;17.05;5.30;;;;;;;6.14;100.00;97536.47;1707637;82;21059;-67
2022/04/08 01:24:19;;;;;;;23.62;5.25;;;;;;;6.14;100.00;97531.02;1696996;83;21237;-68
2022/04/08 01:26:45;;;;;;;20.25;4.97;;;;;;;6.12;100.00;97528.64;1709241;83;21591;-67
2022/04/08 01:29:15;;;;;;;22.02;6.35;;;;;;;6.11;100.00;97522.95;1708625;82;20988;-67
2022/04/08 01:31:44;;;;;;;21.87;5.15;;;;;;;6.10;100.00;97526.81;1697136;83;20926;-67
2022/04/08 01:34:11;;;;;;;16.97;5.17;;;;;;;6.09;100.00;97531.23;1704276;82;21080;-67
2022/04/08 01:36:38;;;;;;;27.50;5.58;;;;;;;6.08;100.00;97544.63;1696854;83;21243;-67
2022/04/08 01:39:06;;;;;;;23.10;5.08;;;;;;;6.08;100.00;97545.98;1706743;83;21084;-67
2022/04/08 01:41:33;;;;;;;16.60;4.80;;;;;;;6.07;100.00;97549.27;1705816;82;22501;-66
2022/04/08 01:44:00;;;;;;;15.38;5.00;;;;;;;6.07;100.00;97534.86;1698779;83;21068;-67
2022/04/08 01:46:26;;;;;;;16.27;5.05;;;;;;;6.04;100.00;97530.87;1700192;83;21026;-66
2022/04/08 01:48:55;;;;;;;17.23;5.70;;;;;;;6.05;100.00;97537.12;1697568;82;21519;-66
2022/04/08 01:51:22;;;;;;;19.73;5.30;;;;;;;6.02;100.00;97541.88;1695233;83;20950;-66
2022/04/08 01:53:50;;;;;;;22.25;5.53;;;;;;;6.02;100.00;97540.52;1704859;83;21075;-67
2022/04/08 01:56:17;;;;;;;23.40;5.28;;;;;;;6.01;100.00;97539.71;1707150;83;21417;-66
2022/04/08 01:58:45;;;;;;;28.40;6.15;;;;;;;6.00;100.00;97538.69;1702849;83;20913;-67
2022/04/08 02:01:13;;;;;;;16.77;4.87;;;;;;;5.98;100.00;97546.39;1684759;83;21196;-67
2022/04/08 02:03:41;;;;;;;28.57;4.95;;;;;;;5.93;100.00;97547.39;1687526;83;21689;-66
2022/04/08 02:06:08;;;;;;;17.52;5.15;;;;;;;5.93;100.00;97547.39;1704007;83;21050;-67
2022/04/08 02:08:36;;;;;;;14.40;4.08;;;;;;;5.91;100.00;97551.81;1704728;83;21552;-67
2022/04/08 02:11:03;;;;;;;18.23;4.60;;;;;;;5.87;100.00;97536.44;1697300;83;21543;-67
2022/04/08 02:13:33;;;;;;;33.58;5.95;;;;;;;5.87;100.00;97536.44;1704388;83;21114;-67
2022/04/08 02:16:00;;;;;;;18.77;5.00;;;;;;;5.84;100.00;97523.49;1701721;83;20989;-67
2022/04/08 02:18:26;;;;;;;19.73;5.70;;;;;;;5.81;100.00;97524.16;1696290;83;20985;-69
2022/04/08 02:20:53;;;;;;;22.82;5.90;;;;;;;5.77;100.00;97529.50;1703279;83;21532;-69
2022/04/08 02:23:19;;;;;;;19.37;5.15;;;;;;;5.74;100.00;97522.00;1709235;83;21528;-69
2022/04/08 02:25:46;;;;;;;27.60;5.33;;;;;;;5.70;100.00;97524.36;1704670;83;21136;-67
2022/04/08 02:28:13;;;;;;;24.02;5.90;;;;;;;5.68;100.00;97519.81;1702506;82;21572;-67
2022/04/08 02:30:40;;;;;;;19.92;5.40;;;;;;;5.67;100.00;97517.66;1693312;83;21151;-69
2022/04/08 02:33:09;;;;;;;19.20;5.40;;;;;;;5.64;100.00;97516.95;1706278;82;21715;-69
2022/04/08 02:35:36;;;;;;;20.25;4.85;;;;;;;5.54;100.00;97515.43;1710362;83;21576;-67
2022/04/08 02:38:03;;;;;;;24.07;5.55;;;;;;;5.54;100.00;97515.43;1700264;83;21138;-67
2022/04/08 02:40:30;;;;;;;18.37;4.58;;;;;;;5.53;100.00;97521.20;1705518;83;21049;-67
2022/04/08 02:42:57;;;;;;;19.25;5.55;;;;;;;5.50;100.00;97518.58;1699204;83;20882;-70
2022/04/08 02:45:24;;;;;;;14.07;5.00;;;;;;;5.50;100.00;97516.42;1700720;83;20982;-71
2022/04/08 02:47:53;;;;;;;26.73;6.10;;;;;;;5.48;100.00;97518.68;1701395;82;21043;-70
2022/04/08 02:50:21;;;;;;;19.23;4.62;;;;;;;5.46;100.00;97520.94;1684766;82;21194;-70
2022/04/08 02:52:48;;;;;;;18.77;5.70;;;;;;;5.45;100.00;97524.22;1708975;83;21089;-65
2022/04/08 02:55:15;;;;;;;23.55;5.17;;;;;;;5.43;100.00;97515.59;1694893;82;21075;-66
2022/04/08 02:57:47;;;;;;;16.50;4.80;;;;;;;5.40;100.00;97504.56;1696341;83;21000;-66
2022/04/08 03:00:16;;;;;;;19.55;4.62;;;;;;;5.37;100.00;97508.75;1703572;83;21023;-66
2022/04/08 03:02:44;;;;;;;17.98;5.30;;;;;;;5.32;100.00;97502.14;1705673;83;21262;-66
2022/04/08 03:05:13;;;;;;;14.70;5.40;;;;;;;5.26;100.00;97497.45;1688846;83;20936;-66
2022/04/08 03:07:42;;;;;;;18.50;5.78;;;;;;;5.24;100.00;97494.83;1692863;84;21053;-67
2022/04/08 03:10:10;;;;;;;21.40;5.42;;;;;;;5.22;100.00;97496.52;1701484;81;21012;-66
2022/04/08 03:12:39;;;;;;;18.17;4.72;;;;;;;5.20;100.00;97502.86;1735619;81;21004;-65
2022/04/08 03:15:07;;;;;;;12.37;4.75;;;;;;;5.19;100.00;97499.94;1685727;82;21265;-65
2022/04/08 03:17:37;;;;;;;15.72;6.15;;;;;;;5.19;100.00;97510.02;1690065;83;20928;-67
2022/04/08 03:20:06;;;;;;;15.60;5.50;;;;;;;5.18;100.00;97520.09;1708930;83;21042;-66
2022/04/08 03:22:33;;;;;;;19.98;5.90;;;;;;;5.18;100.00;97524.18;1705299;83;21174;-66
2022/04/08 03:25:00;;;;;;;23.18;5.45;;;;;;;5.19;100.00;97524.41;1703065;83;20996;-66
2022/04/08 03:27:27;;;;;;;43.15;12.78;;;;;;;5.23;100.00;97525.88;1733465;81;22203;-67
2022/04/08 03:29:54;;;;;;;60.23;20.85;;;;;;;5.24;100.00;97540.52;1723094;81;20987;-65
2022/04/08 03:32:21;;;;;;;41.58;15.35;;;;;;;5.27;100.00;97541.22;1707083;81;21082;-65
2022/04/08 03:34:57;;;;;;;44.75;18.12;;;;;;;5.29;100.00;97541.69;1685161;82;21487;-65
2022/04/08 03:37:18;;;;;;;41.33;17.77;;;;;;;5.33;100.00;97531.50;1692981;82;20962;-65
2022/04/08 03:39:45;;;;;;;20.80;8.38;;;;;;;5.34;100.00;97520.86;1697353;83;21724;-65
2022/04/08 03:42:12;;;;;;;25.30;6.78;;;;;;;5.31;100.00;97512.22;1709447;83;20934;-66
2022/04/08 03:44:40;;;;;;;21.40;6.60;;;;;;;5.28;100.00;97506.09;1663981;84;20932;-64
2022/04/08 03:47:08;;;;;;;16.02;5.60;;;;;;;5.27;100.00;97509.14;1654948;86;21139;-65
2022/04/08 03:49:36;;;;;;;21.27;5.65;;;;;;;5.27;100.00;97498.25;1684771;84;21022;-66
2022/04/08 03:52:08;;;;;;;19.30;5.17;;;;;;;5.27;100.00;97488.17;1677490;84;22456;-66
2022/04/08 03:54:37;;;;;;;14.68;4.83;;;;;;;5.24;100.00;97479.30;1682078;84;20916;-65
2022/04/08 03:57:05;;;;;;;13.88;5.30;;;;;;;5.22;100.00;97472.61;1681062;85;20915;-65
2022/04/08 03:59:32;;;;;;;17.98;5.67;;;;;;;5.19;100.00;97459.13;1643224;86;20944;-65
2022/04/08 04:02:01;;;;;;;18.52;5.28;;;;;;;5.16;100.00;97459.00;1677853;84;20895;-66
2022/04/08 04:04:27;;;;;;;19.80;6.67;;;;;;;5.14;100.00;97463.41;1683409;84;21174;-65
2022/04/08 04:06:55;;;;;;;18.02;5.72;;;;;;;5.15;100.00;97471.80;1684702;84;21376;-66
2022/04/08 04:09:23;;;;;;;20.55;6.45;;;;;;;5.17;100.00;97472.83;1686577;84;21514;-65
2022/04/08 04:11:50;;;;;;;20.00;6.95;;;;;;;5.17;100.00;97479.63;1687569;84;21498;-66
2022/04/08 04:14:17;;;;;;;22.20;6.00;;;;;;;5.17;100.00;97484.51;1685512;84;20995;-66
2022/04/08 04:16:45;;;;;;;19.80;5.50;;;;;;;5.15;100.00;97471.80;1685001;84;20947;-66
2022/04/08 04:19:13;;;;;;;17.80;5.90;;;;;;;5.15;100.00;97471.80;1688813;84;20974;-66
2022/04/08 04:21:41;;;;;;;27.40;6.50;;;;;;;5.16;100.00;97469.87;1661704;84;20956;-66
2022/04/08 04:24:08;;;;;;;21.07;6.12;;;;;;;5.16;100.00;97457.07;1661534;84;20904;-67
2022/04/08 04:26:36;;;;;;;19.92;6.12;;;;;;;5.18;100.00;97468.42;1668566;85;21087;-67
2022/04/08 04:29:03;;;;;;;15.48;6.17;;;;;;;5.20;100.00;97472.94;1668468;85;21151;-66
2022/04/08 04:31:29;;;;;;;21.82;6.20;;;;;;;5.25;100.00;97477.38;1679642;84;21061;-66
2022/04/08 04:33:57;;;;;;;15.88;5.65;;;;;;;5.27;100.00;97465.05;1684693;84;20978;-66
2022/04/08 04:36:23;;;;;;;21.05;6.55;;;;;;;5.34;100.00;97480.05;1683634;84;21042;-66
2022/04/08 04:38:50;;;;;;;25.08;6.85;;;;;;;5.39;100.00;97490.17;1685265;84;21015;-66
2022/04/08 04:41:20;;;;;;;19.73;5.92;;;;;;;5.51;100.00;97490.23;1686609;84;21099;-66
2022/04/08 04:43:48;;;;;;;17.05;5.40;;;;;;;5.51;100.00;97490.23;1687666;84;20908;-66
2022/04/08 04:46:16;;;;;;;18.37;5.45;;;;;;;5.62;100.00;97488.70;1684182;84;20951;-66
2022/04/08 04:48:44;;;;;;;28.83;6.08;;;;;;;5.62;100.00;97488.70;1645987;85;21085;-66
2022/04/08 04:51:13;;;;;;;21.73;5.85;;;;;;;5.72;100.00;97493.52;1651245;86;21099;-66
2022/04/08 04:53:40;;;;;;;16.57;5.30;;;;;;;5.78;100.00;97486.14;1686572;84;21183;-66
2022/04/08 04:56:06;;;;;;;24.30;5.53;;;;;;;5.87;100.00;97484.14;1687659;84;20953;-66
2022/04/08 04:58:34;;;;;;;20.85;5.83;;;;;;;5.99;100.00;97477.17;1689794;84;20951;-66
2022/04/08 05:01:00;;;;;;;22.30;5.47;;;;;;;6.11;100.00;97474.48;1685602;84;21003;-67
2022/04/08 05:03:28;;;;;;;18.12;4.80;;;;;;;6.22;100.00;97462.83;1688112;84;21101;-67
2022/04/08 05:05:55;;;;;;;18.32;5.80;;;;;;;6.27;100.00;97458.52;1684164;84;21160;-67
2022/04/08 05:08:24;;;;;;;26.00;5.35;;;;;;;6.38;100.00;97449.88;1686273;84;21506;-67
2022/04/08 05:10:51;;;;;;;27.05;6.17;;;;;;;6.47;100.00;97438.31;1677303;84;21213;-67
2022/04/08 05:13:19;;;;;;;20.23;4.62;;;;;;;6.58;100.00;97442.18;1678257;85;21094;-67
2022/04/08 05:15:46;;;;;;;16.07;5.03;;;;;;;6.65;100.00;97437.52;1679482;85;21109;-66
2022/04/08 05:18:13;;;;;;;22.13;5.30;;;;;;;6.72;100.00;97439.91;1693421;83;21246;-67
2022/04/08 05:20:41;;;;;;;21.17;5.97;;;;;;;6.81;100.00;97445.25;1680902;83;21009;-66
2022/04/08 05:23:09;;;;;;;20.05;5.10;;;;;;;6.91;100.00;97442.06;1670515;83;21322;-67
2022/04/08 05:25:38;;;;;;;15.32;4.35;;;;;;;7.00;100.00;97456.34;1664761;84;21476;-67
2022/04/08 05:28:06;;;;;;;24.05;6.70;;;;;;;7.06;100.00;97461.80;1682998;83;21500;-67
2022/04/08 05:30:33;;;;;;;20.57;6.45;;;;;;;7.08;100.00;97462.25;1688891;83;21162;-65
2022/04/08 05:33:00;;;;;;;24.12;6.33;;;;;;;7.09;100.00;97443.95;1654449;84;21118;-67
2022/04/08 05:35:26;;;;;;;22.52;6.15;;;;;;;7.11;100.00;97458.83;1677871;84;21169;-67
2022/04/08 05:37:55;;;;;;;23.47;6.55;;;;;;;7.13;100.00;97457.92;1669446;84;21601;-67
2022/04/08 05:40:22;;;;;;;27.95;7.03;;;;;;;7.13;100.00;97447.00;1653676;84;21561;-64
2022/04/08 05:42:50;;;;;;;23.32;7.33;;;;;;;7.11;100.00;97438.94;1653195;84;21805;-65
2022/04/08 05:45:21;;;;;;;28.10;6.30;;;;;;;7.15;100.00;97441.20;1638919;85;20937;-67
2022/04/08 05:47:54;;;;;;;14.55;6.42;;;;;;;7.22;100.00;97439.48;1647283;85;21475;-66
2022/04/08 05:50:21;;;;;;;21.10;6.97;;;;;;;7.33;100.00;97441.17;1637028;85;21193;-66
2022/04/08 05:52:48;;;;;;;17.92;7.05;;;;;;;7.43;100.00;97446.14;1655051;85;21149;-65
2022/04/08 05:55:15;;;;;;;27.10;6.75;;;;;;;7.45;100.00;97442.50;1663094;85;21271;-69
2022/04/08 05:57:43;;;;;;;14.05;5.45;;;;;;;7.47;100.00;97436.70;1655991;85;21643;-68
2022/04/08 06:00:13;;;;;;;23.25;6.22;;;;;;;7.42;100.00;97435.00;1655563;85;21521;-65
2022/04/08 06:02:43;;;;;;;22.48;5.80;;;;;;;7.34;100.00;97431.05;1646136;85;21082;-65
2022/04/08 06:05:10;;;;;;;18.15;5.53;;;;;;;7.27;100.00;97424.80;1656370;85;21005;-66
2022/04/08 06:07:46;;;;;;;21.25;5.45;;;;;;;7.26;100.00;97425.37;1653952;84;21045;-66
2022/04/08 06:10:26;;;;;;;25.23;6.55;;;;;;;7.25;100.00;97436.06;1651648;85;21534;-66
2022/04/08 06:12:55;;;;;;;17.48;6.15;;;;;;;7.23;100.00;97442.44;1657409;85;21153;-66
2022/04/08 06:15:22;;;;;;;24.32;6.35;;;;;;;7.21;100.00;97452.91;1654478;85;21002;-67
2022/04/08 06:17:50;;;;;;;24.60;6.15;;;;;;;7.24;100.00;97446.76;1653974;85;20898;-67
2022/04/08 06:20:18;;;;;;;24.05;5.85;;;;;;;7.26;100.00;97451.30;1656552;85;21133;-66
2022/04/08 06:22:47;;;;;;;19.75;6.47;;;;;;;7.30;100.00;97467.78;1669160;85;21474;-66
2022/04/08 06:25:16;;;;;;;14.20;4.78;;;;;;;7.38;100.00;97466.86;1656687;85;20968;-66
2022/04/08 06:27:45;;;;;;;22.87;5.53;;;;;;;7.46;100.00;97470.59;1650657;85;20916;-66
2022/04/08 06:30:14;;;;;;;25.97;6.17;;;;;;;7.57;100.00;97465.64;1661645;85;21091;-66
2022/04/08 06:32:43;;;;;;;21.87;5.50;;;;;;;7.70;100.00;97475.95;1648323;85;21514;-66
2022/04/08 06:35:10;;;;;;;15.32;5.28;;;;;;;7.79;99.15;97488.90;1653078;85;20934;-66
2022/04/08 06:37:38;;;;;;;18.82;5.10;;;;;;;7.89;99.11;97493.08;1650622;85;21514;-66
2022/04/08 06:40:07;;;;;;;21.15;4.80;;;;;;;7.98;97.88;97476.53;1671625;85;21449;-67
2022/04/08 06:42:36;;;;;;;20.95;5.78;;;;;;;8.05;97.53;97494.48;1659261;85;20975;-66
2022/04/08 06:45:07;;;;;;;18.80;4.80;;;;;;;8.15;95.96;97483.03;1658239;85;21268;-68
2022/04/08 06:47:47;;;;;;;13.03;4.08;;;;;;;8.22;94.08;97484.58;1665282;85;20996;-67
2022/04/08 06:50:15;;;;;;;16.52;4.22;;;;;;;8.25;93.88;97481.16;1642646;85;21026;-70
2022/04/08 06:52:42;;;;;;;19.05;4.90;;;;;;;8.30;92.69;97478.16;1642332;85;21108;-70
2022/04/08 06:55:11;;;;;;;18.42;3.75;;;;;;;8.40;92.62;97472.78;1643832;85;21086;-69
2022/04/08 06:57:38;;;;;;;17.17;4.53;;;;;;;8.51;91.23;97467.81;1666845;84;21155;-66
2022/04/08 07:00:07;;;;;;;19.10;4.75;;;;;;;8.58;90.60;97474.03;1670266;85;21048;-66
2022/04/08 07:02:35;;;;;;;14.33;4.37;;;;;;;8.68;90.49;97471.31;1680518;84;21042;-66
2022/04/08 07:05:04;;;;;;;15.58;4.30;;;;;;;8.82;89.00;97478.50;1677922;85;20991;-66
2022/04/08 07:07:33;;;;;;;19.95;4.80;;;;;;;8.89;88.22;97474.00;1661398;85;21012;-66
2022/04/08 07:10:00;;;;;;;17.45;5.70;;;;;;;8.94;88.49;97477.04;1636244;86;21062;-66
2022/04/08 07:12:27;;;;;;;20.40;5.67;;;;;;;9.05;87.51;97490.41;1658608;84;21240;-70
2022/04/08 07:14:55;;;;;;;17.05;4.87;;;;;;;9.10;86.52;97481.92;1673840;85;21150;-70
2022/04/08 07:17:30;;;;;;;17.62;4.37;;;;;;;9.17;86.79;97490.30;1665555;83;21106;-69
2022/04/08 07:19:59;;;;;;;14.47;4.42;;;;;;;9.36;86.62;97490.09;1654216;83;20964;-66
2022/04/08 07:22:26;;;;;;;19.67;5.37;;;;;;;9.58;84.48;97486.68;1671662;85;21245;-73
2022/04/08 07:24:54;;;;;;;28.77;6.30;;;;;;;9.74;84.09;97490.16;1682571;83;21003;-72
2022/04/08 07:27:21;;;;;;;20.08;5.20;;;;;;;9.90;82.46;97487.32;1661059;83;21187;-71
2022/04/08 07:29:48;;;;;;;14.85;4.40;;;;;;;10.03;82.36;97486.02;1672978;83;21130;-87
2022/04/08 07:32:22;;;;;;;16.73;4.40;;;;;;;10.20;79.45;97486.18;1662294;83;21003;-69
2022/04/08 07:34:51;;;;;;;22.40;5.60;;;;;;;10.22;79.40;97472.33;1650219;85;20998;-71
2022/04/08 07:37:31;;;;;;;15.40;4.42;;;;;;;10.28;80.09;97473.40;1665872;83;20916;-69
2022/04/08 07:39:57;;;;;;;19.25;5.87;;;;;;;10.44;79.20;97477.59;1673352;83;20889;-71
2022/04/08 07:42:25;;;;;;;21.60;4.60;;;;;;;10.65;78.67;97472.27;1661958;85;21024;-71
2022/04/08 07:44:53;;;;;;;21.85;5.65;;;;;;;10.93;77.52;97479.61;1659650;85;20972;-68
2022/04/08 07:47:22;;;;;;;20.57;4.55;;;;;;;11.24;75.53;97466.92;1700347;83;21536;-69
2022/04/08 07:49:49;;;;;;;15.30;4.75;;;;;;;11.51;72.56;97469.08;1635619;85;21480;-70
2022/04/08 07:52:17;;;;;;;17.30;5.03;;;;;;;11.51;72.65;97460.83;1665412;84;21419;-72
2022/04/08 07:54:45;;;;;;;17.35;5.12;;;;;;;11.49;72.61;97454.92;1660682;84;21206;-68
2022/04/08 07:57:15;;;;;;;18.73;4.65;;;;;;;11.48;72.10;97458.83;1677383;84;21062;-68
2022/04/08 07:59:42;;;;;;;18.77;5.20;;;;;;;11.54;71.65;97451.05;1671258;83;21267;-67
2022/04/08 08:02:10;;;;;;;14.20;4.53;;;;;;;11.64;71.13;97444.08;1684519;84;20864;-67
2022/04/08 08:05:07;;;;;;;15.10;4.25;;;;;;;11.68;69.79;97449.05;1686422;84;20964;-67
2022/04/08 08:07:58;;;;;;;23.35;4.47;;;;;;;11.68;69.69;97448.46;1684234;84;21660;-68
2022/04/08 08:10:40;;;;;;;22.52;5.60;;;;;;;11.87;69.60;97459.34;1643758;86;20975;-67
2022/04/08 08:13:21;;;;;;;;;;;;;;;12.17;69.26;97454.34;1674363;83;20896;-68
2022/04/08 08:16:07;;;;;;;23.10;4.53;;;;;;;12.41;67.85;97464.03;1653749;84;20181;-68
2022/04/08 08:18:49;;;;;;;15.05;4.60;;;;;;;12.55;67.42;97469.09;1683517;84;21458;-68
2022/04/08 08:21:26;;;;;;;15.53;4.95;;;;;;;12.61;66.65;97484.67;1683907;84;21046;-68
2022/04/08 08:24:09;;;;;;;18.32;5.10;;;;;;;12.66;66.83;97482.16;1682251;84;21453;-68
2022/04/08 08:26:46;;;;;;;23.87;5.40;;;;;;;12.75;66.27;97482.61;1640409;85;21798;-68
2022/04/08 08:29:43;;;;;;;15.40;5.05;;;;;;;12.81;65.99;97467.33;1625067;86;20986;-68
2022/04/08 08:32:21;;;;;;;25.57;5.12;;;;;;;12.76;64.84;97459.42;1646076;86;21118;-68
2022/04/08 08:34:57;;;;;;;14.05;4.40;;;;;;;12.60;65.48;97454.78;1684172;84;21495;-68
2022/04/08 08:37:37;;;;;;;16.93;5.72;;;;;;;12.57;65.44;97446.70;1668607;84;21533;-68
2022/04/08 08:40:12;;;;;;;20.30;5.97;;;;;;;12.62;65.01;97452.44;1676512;84;21192;-68
2022/04/08 08:47:14;;;;;;;15.80;5.42;;;;;;;12.90;63.78;97442.43;1658840;84;21102;-68
2022/04/08 08:49:51;;;;;;;15.50;4.65;;;;;;;13.03;63.64;97440.16;1646138;84;20991;-68
2022/04/08 08:52:20;;;;;;;20.82;5.67;;;;;;;13.35;62.12;97428.56;1649704;85;21113;-68
2022/04/08 08:54:51;;;;;;;18.07;5.25;;;;;;;13.56;62.07;97442.47;1707346;83;21254;-69
2022/04/08 08:57:20;;;;;;;25.12;5.72;;;;;;;13.78;61.28;97444.16;1691675;82;20908;-71
2022/04/08 08:59:51;;;;;;;16.50;5.70;;;;;;;13.95;59.78;97438.48;1705230;83;21437;-68
2022/04/08 09:02:21;;;;;;;23.35;4.87;;;;;;;14.02;59.05;97451.51;1660971;85;21023;-73
2022/04/08 09:04:50;;;;;;;16.82;5.10;;;;;;;14.03;58.90;97453.88;1690466;84;21021;-68
2022/04/08 09:07:26;;;;;;;11.70;4.15;;;;;;;14.14;59.75;97452.53;1687768;84;21251;-69
2022/04/08 09:09:55;;;;;;;22.48;4.97;;;;;;;14.36;59.42;97452.01;1681994;84;20860;-71
2022/04/08 09:12:25;;;;;;;18.57;5.58;;;;;;;14.67;58.32;97452.66;1677239;84;21486;-72
2022/04/08 09:14:54;;;;;;;17.07;4.78;;;;;;;14.99;56.38;97449.91;1658573;84;21113;-70
2022/04/08 09:17:24;;;;;;;18.20;5.17;;;;;;;15.27;56.74;97441.37;1681571;84;20987;-75
2022/04/08 09:19:55;;;;;;;14.05;4.33;;;;;;;15.62;54.73;97430.82;1677749;84;21287;-76
2022/04/08 09:22:29;;;;;;;12.68;4.70;;;;;;;15.86;54.96;97416.11;1648868;85;21008;-75
2022/04/08 09:25:12;;;;;;;14.33;4.47;;;;;;;16.07;53.07;97402.18;1676139;84;21167;-69
2022/04/08 09:27:41;;;;;;;14.70;4.78;;;;;;;16.01;52.58;97382.25;1678565;84;21101;-70
2022/04/08 09:30:10;;;;;;;13.38;4.53;;;;;;;15.97;52.98;97388.40;1687408;84;21722;-71
2022/04/08 09:32:38;;;;;;;17.35;4.60;;;;;;;15.95;52.30;97392.16;1688350;84;21248;-70
2022/04/08 09:35:07;;;;;;;27.00;5.50;;;;;;;15.90;52.68;97405.03;1682103;84;21019;-72
2022/04/08 09:37:35;;;;;;;10.23;3.58;;;;;;;15.85;52.20;97421.45;1680458;84;20924;-71
2022/04/08 09:40:07;;;;;;;11.38;3.58;;;;;;;15.67;52.82;97421.52;1664561;84;20951;-69
2022/04/08 09:42:51;;;;;;;11.93;3.80;;;;;;;15.60;52.73;97412.48;1669540;84;21563;-70
2022/04/08 09:45:30;;;;;;;10.88;3.62;;;;;;;15.55;53.62;97419.19;1660919;84;21191;-70
2022/04/08 09:48:02;;;;;;;9.23;4.20;;;;;;;15.49;53.95;97409.13;1647767;85;21011;-70
2022/04/08 09:50:31;;;;;;;9.10;4.50;;;;;;;15.55;53.83;97408.72;1671956;84;21024;-68
2022/04/08 09:53:03;;;;;;;11.45;4.25;;;;;;;15.84;52.78;97399.12;1682768;84;21577;-70
2022/04/08 09:55:32;;;;;;;11.95;3.87;;;;;;;16.25;52.26;97388.21;1681651;84;21177;-70
2022/04/08 09:58:08;;;;;;;12.55;4.03;;;;;;;16.55;50.37;97392.36;1686133;84;21285;-68
2022/04/08 10:00:36;;;;;;;20.20;4.72;;;;;;;16.73;50.11;97402.74;1700904;81;21489;-69
2022/04/08 10:03:04;;;;;;;9.90;3.92;;;;;;;16.76;49.29;97397.14;1653849;83;21490;-72
2022/04/08 10:05:32;;;;;;;8.93;3.52;;;;;;;16.72;49.54;97400.57;1703789;82;21105;-70
2022/04/08 10:08:01;;;;;;;9.15;4.53;;;;;;;16.64;49.22;97403.20;1699194;82;21160;-69
2022/04/08 10:10:48;;;;;;;13.80;3.72;;;;;;;16.48;49.52;97414.76;1697562;83;21022;-72
2022/04/08 10:13:33;;;;;;;10.88;3.80;;;;;;;16.25;50.32;97413.12;1704839;82;21130;-71
2022/04/08 10:16:20;;;;;;;8.88;3.55;;;;;;;16.05;50.89;97407.33;1689584;82;21046;-69
2022/04/08 10:18:50;;;;;;;7.92;3.92;;;;;;;15.87;51.05;97408.60;1684847;84;21400;-70
2022/04/08 10:21:19;;;;;;;9.15;4.28;;;;;;;15.65;51.77;97410.07;1682492;84;21109;-70
2022/04/08 10:23:58;;;;;;;11.75;4.37;;;;;;;15.53;51.81;97413.27;1680536;85;21275;-69
2022/04/08 10:26:29;;;;;;;11.95;4.45;;;;;;;15.38;52.53;97424.17;1675761;84;20943;-75
2022/04/08 10:28:56;;;;;;;8.63;4.47;;;;;;;15.17;53.30;97422.23;1681169;84;20943;-73
2022/04/08 10:31:26;;;;;;;11.12;3.83;;;;;;;14.96;53.78;97425.05;1633505;86;21043;-70
2022/04/08 10:33:56;;;;;;;11.88;4.05;;;;;;;14.78;54.58;97421.69;1651689;86;20983;-69
2022/04/08 10:36:41;;;;;;;9.80;4.83;;;;;;;14.60;56.54;97434.70;1643200;86;21456;-69
2022/04/08 10:39:24;;;;;;;12.63;4.65;;;;;;;14.36;58.43;97464.42;1648562;84;20884;-69
2022/04/08 10:42:00;;;;;;;9.35;4.17;;;;;;;14.01;61.74;97467.86;1678234;84;21035;-70
2022/04/08 10:44:41;;;;;;;12.03;4.60;;;;;;;13.56;63.88;97486.58;1672684;84;21005;-69
2022/04/08 10:47:16;;;;;;;9.45;5.00;;;;;;;13.25;66.47;97500.96;1669380;84;21594;-69
2022/04/08 10:49:56;;;;;;;12.55;6.92;;;;;;;12.93;70.65;97508.34;1672469;84;21428;-73
2022/04/08 10:52:27;;;;;;;14.30;6.25;;;;;;;12.54;74.11;97506.63;1665632;85;20970;-71
2022/04/08 10:55:10;;;;;;;15.35;5.90;;;;;;;12.19;76.79;97534.53;1675637;84;20879;-73
2022/04/08 10:57:43;;;;;;;17.10;8.95;;;;;;;11.92;79.50;97534.41;1641657;86;21121;-70
2022/04/08 11:00:16;;;;;;;18.02;9.25;;;;;;;11.67;82.96;97528.53;1655126;86;21007;-69
2022/04/08 11:02:48;;;;;;;17.10;7.10;;;;;;;11.54;86.38;97529.37;1654447;86;21033;-71
2022/04/08 11:05:18;;;;;;;15.58;6.72;;;;;;;11.46;90.49;97541.41;1652246;84;21003;-70
2022/04/08 11:07:55;;;;;;;16.62;6.80;;;;;;;11.34;91.84;97552.02;1685552;84;21495;-73
2022/04/08 11:10:21;;;;;;;19.77;8.23;;;;;;;11.19;93.12;97559.24;1677663;84;21011;-72
2022/04/08 11:12:52;;;;;;;17.27;7.67;;;;;;;11.06;92.88;97557.84;1701003;83;21452;-73
2022/04/08 11:15:28;;;;;;;17.10;8.45;;;;;;;10.93;93.61;97563.33;1742731;81;20967;-77
2022/04/08 11:17:55;;;;;;;18.73;9.38;;;;;;;10.84;95.43;97550.43;1716242;81;21542;-72
2022/04/08 11:20:24;;;;;;;21.97;9.60;;;;;;;10.79;95.47;97557.59;1670406;84;20924;-73
2022/04/08 11:22:55;;;;;;;12.43;7.60;;;;;;;10.75;95.55;97560.85;1706547;83;21006;-71
2022/04/08 11:25:27;;;;;;;12.30;6.45;;;;;;;10.75;96.54;97574.58;1698853;83;21092;-69
2022/04/08 11:28:06;;;;;;;15.25;7.80;;;;;;;10.76;96.73;97566.55;1711335;83;21143;-74
2022/04/08 11:30:42;;;;;;;15.23;8.30;;;;;;;10.82;96.83;97571.95;1704841;83;21002;-76
2022/04/08 11:33:18;;;;;;;21.00;8.83;;;;;;;10.95;96.65;97578.07;1706057;83;21010;-77
2022/04/08 11:35:50;;;;;;;18.60;8.73;;;;;;;11.00;94.77;97583.23;1700143;83;21129;-73
2022/04/08 11:38:23;;;;;;;11.93;6.15;;;;;;;11.00;94.24;97577.16;1689644;83;21033;-70
2022/04/08 11:40:52;;;;;;;15.55;7.40;;;;;;;11.04;94.57;97574.47;1686162;84;21208;-68
2022/04/08 11:43:21;;;;;;;17.57;7.92;;;;;;;11.05;94.85;97586.46;1675936;84;20891;-69